createdAt,value
2022-08-08T00:01:17.887Z,1.00
2022-08-08T00:03:53.240Z,1.00
2022-08-08T00:06:37.598Z,1.00
2022-08-08T00:09:12.149Z,1.00
2022-08-08T00:12:07.778Z,1.00
2022-08-08T00:14:59.260Z,1.00
2022-08-08T00:18:02.320Z,1.00
2022-08-08T00:20:36.046Z,1.00
2022-08-08T00:23:09.036Z,1.00
2022-08-08T00:25:46.188Z,1.00
2022-08-08T00:28:35.401Z,1.00
2022-08-08T00:32:20.646Z,1.00
2022-08-08T00:34:38.863Z,20.40
2022-08-08T00:37:45.389Z,85.20
2022-08-08T00:41:09.293Z,67.30
2022-08-08T00:43:45.897Z,33.40
2022-08-08T00:46:57.471Z,1.00
2022-08-08T00:50:04.372Z,1.00
2022-08-08T00:52:48.863Z,1.50
2022-08-08T00:55:54.703Z,1.00
2022-08-08T00:58:55.568Z,10.40
2022-08-08T01:01:37.977Z,20.60
2022-08-08T01:04:56.923Z,57.30
2022-08-08T01:08:11.186Z,67.00
2022-08-08T01:11:02.125Z,53.90
2022-08-08T01:14:16.209Z,71.60
2022-08-08T01:17:14.933Z,99.60
2022-08-08T01:20:22.325Z,91.40
2022-08-08T01:24:03.206Z,96.40
2022-08-08T01:26:49.054Z,99.90
2022-08-08T01:29:59.924Z,99.90
2022-08-08T01:33:33.746Z,99.90
2022-08-08T01:36:48.697Z,99.90
2022-08-08T01:39:34.997Z,99.90
2022-08-08T01:42:21.451Z,99.90
2022-08-08T01:45:24.109Z,99.90
2022-08-08T01:48:27.574Z,99.90
2022-08-08T01:51:30.758Z,99.90
2022-08-08T01:55:15.423Z,99.90
2022-08-08T01:57:25.951Z,99.90
2022-08-08T02:00:20.047Z,99.90
2022-08-08T02:03:56.181Z,99.80
2022-08-08T02:06:32.445Z,99.90
2022-08-08T02:10:01.757Z,99.90
2022-08-08T02:12:19.468Z,99.90
2022-08-08T02:14:58.787Z,99.90
2022-08-08T02:17:43.405Z,99.90
2022-08-08T02:21:01.580Z,99.90
2022-08-08T02:23:31.658Z,99.90
2022-08-08T02:26:10.275Z,99.90
2022-08-08T02:28:51.855Z,99.90
2022-08-08T02:31:57.855Z,99.90
2022-08-08T02:35:06.446Z,99.90
2022-08-08T02:37:51.361Z,99.90
2022-08-08T02:40:39.061Z,99.90
2022-08-08T02:44:37.502Z,99.90
2022-08-08T02:46:41.605Z,99.90
2022-08-08T02:49:51.223Z,99.90
2022-08-08T02:52:50.856Z,99.90
2022-08-08T02:55:41.435Z,99.90
2022-08-08T02:58:48.273Z,99.90
2022-08-08T03:01:56.525Z,99.90
2022-08-08T03:05:12.322Z,99.90
2022-08-08T03:08:25.793Z,99.90
2022-08-08T03:11:47.833Z,99.90
2022-08-08T03:15:58.108Z,99.90
2022-08-08T03:17:40.921Z,99.90
2022-08-08T03:20:11.579Z,1.00
2022-08-08T03:22:56.092Z,90.00
2022-08-08T03:25:36.131Z,99.90
2022-08-08T03:28:10.791Z,1.00
2022-08-08T03:30:49.049Z,99.90
2022-08-08T03:33:55.678Z,99.90
2022-08-08T03:36:27.865Z,99.90
2022-08-08T03:39:15.002Z,99.90
2022-08-08T03:42:26.797Z,1.00
2022-08-08T03:44:39.668Z,99.90
2022-08-08T03:47:20.244Z,99.90
2022-08-08T03:50:00.973Z,47.60
2022-08-08T03:52:37.228Z,1.00
2022-08-08T03:55:55.318Z,1.00
2022-08-08T03:58:30.484Z,1.00
2022-08-08T04:01:23.206Z,1.00
2022-08-08T04:03:57.375Z,99.90
2022-08-08T04:06:34.105Z,1.00
2022-08-08T04:09:11.310Z,1.00
2022-08-08T04:11:58.886Z,1.00
2022-08-08T04:14:55.606Z,1.00
2022-08-08T04:17:58.346Z,94.10
2022-08-08T04:20:12.598Z,99.90
2022-08-08T04:22:41.399Z,99.90
2022-08-08T04:25:13.094Z,99.90
2022-08-08T04:28:02.217Z,99.90
2022-08-08T04:30:36.573Z,99.90
2022-08-08T04:33:15.801Z,99.90
2022-08-08T04:35:51.218Z,99.90
2022-08-08T04:38:22.531Z,99.90
2022-08-08T04:40:54.939Z,99.90
2022-08-08T04:43:31.672Z,73.40
2022-08-08T04:46:15.321Z,10.60
2022-08-08T04:48:44.360Z,1.00
2022-08-08T04:51:17.384Z,1.00
2022-08-08T04:54:36.131Z,99.90
2022-08-08T04:56:40.455Z,33.80
2022-08-08T04:59:13.001Z,1.00
2022-08-08T05:01:48.586Z,1.00
2022-08-08T05:04:19.632Z,1.00
2022-08-08T05:06:52.031Z,1.00
2022-08-08T05:09:21.438Z,1.00
2022-08-08T05:11:57.218Z,99.90
2022-08-08T05:14:29.177Z,99.90
2022-08-08T05:17:00.558Z,99.90
2022-08-08T05:20:10.604Z,99.90
2022-08-08T05:22:23.698Z,99.90
2022-08-08T05:24:52.976Z,99.90
2022-08-08T05:27:23.716Z,99.90
2022-08-08T05:29:56.552Z,99.90
2022-08-08T05:32:36.388Z,99.90
2022-08-08T05:35:13.486Z,99.90
2022-08-08T05:37:53.490Z,99.90
2022-08-08T05:40:35.316Z,99.90
2022-08-08T05:43:17.134Z,99.90
2022-08-08T05:46:08.650Z,99.90
2022-08-08T05:48:41.973Z,99.90
2022-08-08T05:51:15.664Z,99.90
2022-08-08T05:54:25.748Z,99.90
2022-08-08T05:56:47.734Z,99.90
2022-08-08T05:59:59.838Z,99.90
2022-08-08T06:02:38.631Z,99.90
2022-08-08T06:05:34.087Z,99.90
2022-08-08T06:08:02.454Z,99.90
2022-08-08T06:10:34.690Z,99.90
2022-08-08T06:13:04.753Z,99.90
2022-08-08T06:15:53.384Z,99.90
2022-08-08T06:18:42.900Z,99.90
2022-08-08T06:21:28.081Z,99.90
2022-08-08T06:24:02.608Z,99.90
2022-08-08T06:26:50.268Z,99.90
2022-08-08T06:30:00.407Z,99.90
2022-08-08T06:32:19.706Z,99.90
2022-08-08T06:35:12.051Z,99.90
2022-08-08T06:37:55.797Z,99.90
2022-08-08T06:40:32.190Z,99.90
2022-08-08T06:43:10.019Z,99.90
2022-08-08T06:45:48.505Z,99.90
2022-08-08T06:48:18.828Z,99.90
2022-08-08T06:50:57.731Z,99.90
2022-08-08T06:53:39.915Z,99.90
2022-08-08T06:56:11.591Z,99.90
2022-08-08T06:58:45.003Z,99.90
2022-08-08T07:02:17.065Z,99.90
2022-08-08T07:04:37.286Z,99.90
2022-08-08T07:07:09.633Z,99.90
2022-08-08T07:09:56.268Z,99.90
2022-08-08T07:12:39.283Z,99.90
2022-08-08T07:15:22.996Z,99.90
2022-08-08T07:18:35.807Z,99.90
2022-08-08T07:21:01.866Z,99.90
2022-08-08T07:24:00.882Z,99.90
2022-08-08T07:26:35.628Z,99.90
2022-08-08T07:29:08.197Z,99.90
2022-08-08T07:31:43.404Z,99.90
2022-08-08T07:34:26.994Z,99.90
2022-08-08T07:37:12.186Z,99.90
2022-08-08T07:39:57.680Z,99.90
2022-08-08T07:42:34.466Z,99.90
2022-08-08T07:45:07.537Z,99.90
2022-08-08T07:47:40.114Z,99.90
2022-08-08T07:50:24.009Z,99.90
2022-08-08T07:52:58.101Z,99.90
2022-08-08T07:55:30.817Z,99.90
2022-08-08T07:58:17.750Z,99.90
2022-08-08T08:00:51.980Z,99.90
2022-08-08T08:03:41.518Z,99.90
2022-08-08T08:06:16.363Z,99.90
2022-08-08T08:08:53.031Z,99.90
2022-08-08T08:11:33.654Z,99.90
2022-08-08T08:14:11.215Z,99.90
2022-08-08T08:16:48.507Z,99.90
2022-08-08T08:19:26.779Z,99.90
2022-08-08T08:22:02.354Z,99.90
2022-08-08T08:24:38.817Z,99.90
2022-08-08T08:27:12.795Z,99.90
2022-08-08T08:29:44.317Z,99.90
2022-08-08T08:32:32.105Z,99.90
2022-08-08T08:35:09.783Z,99.90
2022-08-08T08:38:05.500Z,99.90
2022-08-08T08:40:30.096Z,99.90
2022-08-08T08:43:02.800Z,99.90
2022-08-08T08:45:33.008Z,99.90
2022-08-08T08:48:05.288Z,99.90
2022-08-08T08:50:40.930Z,99.90
2022-08-08T08:53:54.576Z,99.90
2022-08-08T08:56:14.599Z,99.90
2022-08-08T08:58:50.236Z,99.90
2022-08-08T09:01:34.290Z,99.90
2022-08-08T09:04:10.183Z,99.90
2022-08-08T09:06:58.569Z,99.90
2022-08-08T09:09:40.145Z,99.90
2022-08-08T09:12:23.763Z,99.90
2022-08-08T09:14:57.244Z,99.90
2022-08-08T09:17:40.820Z,99.90
2022-08-08T09:21:57.183Z,99.90
2022-08-08T09:23:10.462Z,99.90
2022-08-08T09:25:55.018Z,99.90
2022-08-08T09:28:40.041Z,99.90
2022-08-08T09:31:42.818Z,99.90
2022-08-08T09:34:32.844Z,99.90
2022-08-08T09:37:57.833Z,99.90
2022-08-08T09:40:03.831Z,99.90
2022-08-08T09:42:44.494Z,99.90
2022-08-08T09:46:00.724Z,99.90
2022-08-08T09:48:17.739Z,99.90
2022-08-08T09:50:51.644Z,99.90
2022-08-08T09:53:54.761Z,99.90
2022-08-08T09:56:25.178Z,99.90
2022-08-08T09:58:58.403Z,99.90
2022-08-08T10:01:59.119Z,99.90
2022-08-08T10:04:22.691Z,99.90
2022-08-08T10:07:15.807Z,99.90
2022-08-08T10:09:58.755Z,99.90
2022-08-08T10:12:38.012Z,99.90
2022-08-08T10:15:17.884Z,99.90
2022-08-08T10:18:07.319Z,99.90
2022-08-08T10:20:50.965Z,99.90
2022-08-08T10:23:41.927Z,99.90
2022-08-08T10:26:26.007Z,99.90
2022-08-08T10:29:04.164Z,99.90
2022-08-08T10:31:51.670Z,99.90
2022-08-08T10:34:22.302Z,99.90
2022-08-08T10:36:53.292Z,99.90
2022-08-08T10:39:23.375Z,99.90
2022-08-08T10:42:15.377Z,99.90
2022-08-08T10:44:45.910Z,99.90
2022-08-08T10:47:21.169Z,99.90
2022-08-08T10:50:02.045Z,99.90
2022-08-08T10:52:33.914Z,99.90
2022-08-08T10:55:06.287Z,99.90
2022-08-08T10:57:50.355Z,99.90
2022-08-08T11:00:25.834Z,99.90
2022-08-08T11:02:54.631Z,99.90
2022-08-08T11:05:23.515Z,99.90
2022-08-08T11:08:31.885Z,99.90
2022-08-08T11:10:44.606Z,99.90
2022-08-08T11:13:28.517Z,99.90
2022-08-08T11:16:01.385Z,99.90
2022-08-08T11:18:37.487Z,99.90
2022-08-08T11:21:08.801Z,99.90
2022-08-08T11:23:42.832Z,99.90
2022-08-08T11:26:12.236Z,99.90
2022-08-08T11:28:50.187Z,99.90
2022-08-08T11:31:21.080Z,99.90
2022-08-08T11:34:01.638Z,99.90
2022-08-08T11:36:33.171Z,99.90
2022-08-08T11:39:11.048Z,99.90
2022-08-08T11:41:43.159Z,99.90
2022-08-08T11:44:13.405Z,99.90
2022-08-08T11:46:42.320Z,99.90
2022-08-08T11:49:14.219Z,99.90
2022-08-08T11:51:49.846Z,99.90
2022-08-08T11:54:33.484Z,99.90
2022-08-08T11:57:16.862Z,99.90
2022-08-08T12:00:00.677Z,99.90
2022-08-08T12:02:48.639Z,99.90
2022-08-08T12:05:22.910Z,99.90
2022-08-08T12:07:56.120Z,99.90
2022-08-08T12:10:27.374Z,99.90
2022-08-08T12:13:02.988Z,99.90
2022-08-08T12:15:41.718Z,99.90
2022-08-08T12:18:16.092Z,99.90
2022-08-08T12:20:49.197Z,99.90
2022-08-08T12:23:40.188Z,99.90
2022-08-08T12:26:28.459Z,99.90
2022-08-08T12:29:21.199Z,99.90
2022-08-08T12:32:02.747Z,99.90
2022-08-08T12:34:43.611Z,99.90
2022-08-08T12:37:20.983Z,99.90
2022-08-08T12:40:00.651Z,99.90
2022-08-08T12:42:33.594Z,99.90
2022-08-08T12:45:54.005Z,99.90
2022-08-08T12:48:10.489Z,99.90
2022-08-08T12:50:54.780Z,99.90
2022-08-08T12:53:30.288Z,99.90
2022-08-08T12:56:17.461Z,99.90
2022-08-08T12:58:50.974Z,99.90
2022-08-08T13:01:24.366Z,99.90
2022-08-08T13:04:19.175Z,99.90
2022-08-08T13:07:06.607Z,99.90
2022-08-08T13:10:00.944Z,99.90
2022-08-08T13:12:30.669Z,99.90
2022-08-08T13:15:03.638Z,99.90
2022-08-08T13:18:07.754Z,99.90
2022-08-08T13:20:27.332Z,99.90
2022-08-08T13:25:50.958Z,99.90
2022-08-08T13:28:32.170Z,99.90
2022-08-08T13:31:03.835Z,99.90
2022-08-08T13:33:42.828Z,99.90
2022-08-08T13:36:12.054Z,99.90
2022-08-08T13:38:44.430Z,99.90
2022-08-08T13:41:16.866Z,99.90
2022-08-08T13:43:47.378Z,99.90
2022-08-08T13:46:26.686Z,99.90
2022-08-08T13:49:11.754Z,99.90
2022-08-08T13:51:54.985Z,99.90
2022-08-08T13:54:31.326Z,99.90
2022-08-08T13:57:08.605Z,99.90
2022-08-08T13:59:44.306Z,99.90
2022-08-08T14:02:21.755Z,99.90
2022-08-08T14:04:54.520Z,99.90
2022-08-08T14:07:29.889Z,99.90
2022-08-08T14:10:04.904Z,99.90
2022-08-08T14:12:43.862Z,99.90
2022-08-08T14:15:31.659Z,99.90
2022-08-08T14:18:34.773Z,99.90
2022-08-08T14:21:03.587Z,99.90
2022-08-08T14:24:07.414Z,99.90
2022-08-08T14:26:31.845Z,99.90
2022-08-08T14:29:06.053Z,99.90
2022-08-08T14:32:10.066Z,99.90
2022-08-08T14:34:38.143Z,99.90
2022-08-08T14:37:08.184Z,99.90
2022-08-08T14:39:47.803Z,99.90
2022-08-08T14:42:17.864Z,99.90
2022-08-08T14:44:56.933Z,99.90
2022-08-08T14:47:26.716Z,99.90
2022-08-08T14:50:21.284Z,99.90
2022-08-08T14:52:57.403Z,99.90
2022-08-08T14:55:41.042Z,99.90
2022-08-08T14:58:16.213Z,99.90
2022-08-08T15:00:49.132Z,99.90
2022-08-08T15:03:18.479Z,99.90
2022-08-08T15:05:54.334Z,99.90
2022-08-08T15:08:33.558Z,99.90
2022-08-08T15:11:06.450Z,99.90
2022-08-08T15:13:41.028Z,99.90
2022-08-08T15:16:23.628Z,99.90
2022-08-08T15:18:52.316Z,99.90
2022-08-08T15:21:22.183Z,99.90
2022-08-08T15:23:52.045Z,99.90
2022-08-08T15:26:20.957Z,99.90
2022-08-08T15:28:54.378Z,99.90
2022-08-08T15:32:02.705Z,99.90
2022-08-08T15:34:18.565Z,99.90
2022-08-08T15:36:59.523Z,99.90
2022-08-08T15:39:38.420Z,99.90
2022-08-08T15:42:10.424Z,99.90
2022-08-08T15:44:42.561Z,99.90
2022-08-08T15:47:15.664Z,99.90
2022-08-08T15:49:48.316Z,99.90
2022-08-08T15:52:21.507Z,99.90
2022-08-08T15:54:51.729Z,99.90
2022-08-08T15:57:21.660Z,99.90
2022-08-08T16:00:05.536Z,99.90
2022-08-08T16:02:50.162Z,99.90
2022-08-08T16:05:19.640Z,99.90
2022-08-08T16:07:52.876Z,99.90
2022-08-08T16:13:09.457Z,99.90
2022-08-08T16:13:31.982Z,99.90
2022-08-08T16:16:13.294Z,99.90
2022-08-08T16:18:56.537Z,99.90
2022-08-08T16:21:29.058Z,99.90
2022-08-08T16:24:00.757Z,99.90
2022-08-08T16:26:33.882Z,99.90
2022-08-08T16:29:07.781Z,99.90
2022-08-08T16:31:40.126Z,99.90
2022-08-08T16:34:08.919Z,99.90
2022-08-08T16:36:40.620Z,99.90
2022-08-08T16:39:27.855Z,99.90
2022-08-08T16:42:01.435Z,99.90
2022-08-08T16:44:33.654Z,99.90
2022-08-08T16:47:17.672Z,99.90
2022-08-08T16:49:49.861Z,99.90
2022-08-08T16:55:01.402Z,99.90
2022-08-08T16:55:42.665Z,99.90
2022-08-08T16:58:15.786Z,99.90
2022-08-08T17:00:48.684Z,99.90
2022-08-08T17:03:25.029Z,99.90
2022-08-08T17:06:36.890Z,99.90
2022-08-08T17:08:57.650Z,99.90
2022-08-08T17:11:28.249Z,99.90
2022-08-08T17:14:17.982Z,99.90
2022-08-08T17:16:57.088Z,99.90
2022-08-08T17:19:27.400Z,99.90
2022-08-08T17:22:01.062Z,99.90
2022-08-08T17:24:30.850Z,99.90
2022-08-08T17:27:01.844Z,99.90
2022-08-08T17:29:34.009Z,99.90
2022-08-08T17:32:07.815Z,99.90
2022-08-08T17:35:52.157Z,99.90
2022-08-08T17:37:27.536Z,99.90
2022-08-08T17:40:06.065Z,99.90
2022-08-08T17:42:47.384Z,99.90
2022-08-08T17:45:23.195Z,99.90
2022-08-08T17:47:54.063Z,99.90
2022-08-08T17:50:23.775Z,99.90
2022-08-08T17:52:52.629Z,99.90
2022-08-08T17:56:07.097Z,99.90
2022-08-08T17:58:12.296Z,99.90
2022-08-08T18:00:41.264Z,99.90
2022-08-08T18:03:13.498Z,99.90
2022-08-08T18:05:49.898Z,99.90
2022-08-08T18:08:24.718Z,99.90
2022-08-08T18:11:07.909Z,99.90
2022-08-08T18:13:41.984Z,99.90
2022-08-08T18:16:11.339Z,99.90
2022-08-08T18:18:45.607Z,99.90
2022-08-08T18:21:25.123Z,99.90
2022-08-08T18:24:04.927Z,99.90
2022-08-08T18:26:34.037Z,99.90
2022-08-08T18:29:05.865Z,99.90
2022-08-08T18:31:34.098Z,99.90
2022-08-08T18:34:25.769Z,99.90
2022-08-08T18:36:56.270Z,99.90
2022-08-08T18:39:28.593Z,99.90
2022-08-08T18:42:03.008Z,99.90
2022-08-08T18:44:35.878Z,99.90
2022-08-08T18:47:04.887Z,99.90
2022-08-08T18:49:40.852Z,99.90
2022-08-08T18:52:23.429Z,99.90
2022-08-08T18:54:59.386Z,99.90
2022-08-08T18:57:41.658Z,99.90
2022-08-08T19:00:16.396Z,99.90
2022-08-08T19:02:56.603Z,99.90
2022-08-08T19:05:34.845Z,99.90
2022-08-08T19:08:25.062Z,99.90
2022-08-08T19:10:57.728Z,99.90
2022-08-08T19:13:52.949Z,99.90
2022-08-08T19:16:19.453Z,99.90
2022-08-08T19:19:02.109Z,99.90
2022-08-08T19:21:49.259Z,99.90
2022-08-08T19:24:48.956Z,99.90
2022-08-08T19:27:08.109Z,99.90
2022-08-08T19:29:40.933Z,99.90
2022-08-08T19:32:21.762Z,99.90
2022-08-08T19:34:52.778Z,99.90
2022-08-08T19:37:43.816Z,99.90
2022-08-08T19:40:16.188Z,99.90
2022-08-08T19:42:45.219Z,99.90
2022-08-08T19:45:14.336Z,99.90
2022-08-08T19:48:03.417Z,99.90
2022-08-08T19:50:33.089Z,99.90
2022-08-08T19:53:01.408Z,99.90
2022-08-08T19:55:34.084Z,99.90
2022-08-08T19:58:02.655Z,99.90
2022-08-08T20:00:34.363Z,99.90
2022-08-08T20:03:14.879Z,99.90
2022-08-08T20:06:14.442Z,99.90
2022-08-08T20:08:48.184Z,99.90
2022-08-08T20:11:18.604Z,99.90
2022-08-08T20:14:10.790Z,99.90
2022-08-08T20:16:40.742Z,99.90
2022-08-08T20:19:10.674Z,99.90
2022-08-08T20:21:39.463Z,99.90
2022-08-08T20:24:08.785Z,99.90
2022-08-08T20:26:41.782Z,1.00
2022-08-08T20:29:18.179Z,1.00
2022-08-08T20:31:47.289Z,1.00
2022-08-08T20:34:36.071Z,1.00
2022-08-08T20:37:07.213Z,1.00
2022-08-08T20:39:41.406Z,1.00
2022-08-08T20:42:20.446Z,1.00
2022-08-08T20:44:56.556Z,1.00
2022-08-08T20:47:25.958Z,1.00
2022-08-08T20:49:57.679Z,1.00
2022-08-08T20:52:28.453Z,1.00
2022-08-08T20:54:56.771Z,1.00
2022-08-08T20:57:27.156Z,1.00
2022-08-08T20:59:56.532Z,1.00
2022-08-08T21:02:25.683Z,1.00
2022-08-08T21:04:57.321Z,1.00
2022-08-08T21:07:31.163Z,1.00
2022-08-08T21:10:20.840Z,1.00
2022-08-08T21:12:52.854Z,5.10
2022-08-08T21:16:05.030Z,21.20
2022-08-08T21:18:12.216Z,28.90
2022-08-08T21:20:50.867Z,33.00
2022-08-08T21:23:19.156Z,47.10
2022-08-08T21:25:54.777Z,51.80
2022-08-08T21:28:35.519Z,58.40
2022-08-08T21:31:22.610Z,75.90
2022-08-08T21:33:51.830Z,90.60
2022-08-08T21:36:28.845Z,99.90
2022-08-08T21:38:57.614Z,99.90
2022-08-08T21:41:28.929Z,99.90
2022-08-08T21:44:13.107Z,99.90
2022-08-08T21:48:08.838Z,99.90
2022-08-08T21:49:30.626Z,99.90
2022-08-08T21:54:30.734Z,99.90
2022-08-08T21:54:54.159Z,99.90
2022-08-08T21:57:41.828Z,99.90
2022-08-08T22:00:12.286Z,99.90
2022-08-08T22:02:42.777Z,99.90
2022-08-08T22:05:14.607Z,99.90
2022-08-08T22:07:48.400Z,99.90
2022-08-08T22:10:32.062Z,99.90
2022-08-08T22:13:17.421Z,99.90
2022-08-08T22:15:58.669Z,99.90
2022-08-08T22:18:29.674Z,99.90
2022-08-08T22:20:59.555Z,99.90
2022-08-08T22:23:38.439Z,99.90
2022-08-08T22:26:26.863Z,99.90
2022-08-08T22:29:13.855Z,98.00
2022-08-08T22:32:01.512Z,92.30
2022-08-08T22:34:39.804Z,91.30
2022-08-08T22:37:27.592Z,97.90
2022-08-08T22:40:02.021Z,98.90
2022-08-08T22:42:31.921Z,99.90
2022-08-08T22:45:03.148Z,99.90
2022-08-08T22:47:37.976Z,99.90
2022-08-08T22:50:09.719Z,99.90
2022-08-08T22:53:22.526Z,99.90
2022-08-08T22:55:58.861Z,99.90
2022-08-08T22:58:33.159Z,99.90
2022-08-08T23:02:00.611Z,99.90
2022-08-08T23:03:54.683Z,99.90
2022-08-08T23:06:24.085Z,99.90
2022-08-08T23:08:55.395Z,99.90
2022-08-08T23:11:58.009Z,99.90
2022-08-08T23:14:18.257Z,99.90
2022-08-08T23:16:53.226Z,99.90
2022-08-08T23:19:26.312Z,99.90
2022-08-08T23:21:54.433Z,99.90
2022-08-08T23:24:23.627Z,99.90
2022-08-08T23:26:56.083Z,99.90
2022-08-08T23:29:25.375Z,99.90
2022-08-08T23:31:53.863Z,99.90
2022-08-08T23:34:22.349Z,99.90
2022-08-08T23:36:56.562Z,1.00
2022-08-08T23:39:32.421Z,1.00
2022-08-08T23:42:11.879Z,1.00
2022-08-08T23:44:39.943Z,1.00
2022-08-08T23:49:06.163Z,1.00
2022-08-08T23:50:03.134Z,14.00
2022-08-08T23:52:35.138Z,43.20
2022-08-08T23:55:13.941Z,7.00
2022-08-08T23:57:53.348Z,1.00
